createdAt,value
2018-09-15T00:00:13.551Z,19.90
2018-09-15T00:01:14.569Z,19.30
2018-09-15T00:02:13.585Z,19.90
2018-09-15T00:03:13.658Z,19.40
2018-09-15T00:04:13.613Z,20.30
2018-09-15T00:05:13.630Z,20.10
2018-09-15T00:06:13.649Z,20.90
2018-09-15T00:07:13.675Z,21.00
2018-09-15T00:08:13.683Z,20.10
2018-09-15T00:09:13.759Z,20.70
2018-09-15T00:10:13.717Z,23.30
2018-09-15T00:11:13.739Z,21.80
2018-09-15T00:12:13.766Z,21.30
2018-09-15T00:13:13.771Z,20.90
2018-09-15T00:14:13.821Z,23.10
2018-09-15T00:15:13.807Z,21.30
2018-09-15T00:16:13.823Z,21.50
2018-09-15T00:17:13.843Z,20.60
2018-09-15T00:18:13.858Z,21.50
2018-09-15T00:19:13.879Z,21.30
2018-09-15T00:20:13.887Z,22.00
2018-09-15T00:21:13.910Z,23.20
2018-09-15T00:22:13.927Z,21.80
2018-09-15T00:23:14.055Z,21.80
2018-09-15T00:24:13.954Z,22.50
2018-09-15T00:25:13.975Z,22.60
2018-09-15T00:26:13.991Z,23.00
2018-09-15T00:27:14.051Z,23.00
2018-09-15T00:28:14.022Z,23.40
2018-09-15T00:29:14.037Z,22.30
2018-09-15T00:30:14.055Z,23.80
2018-09-15T00:31:14.078Z,26.70
2018-09-15T00:32:14.094Z,23.40
2018-09-15T00:33:14.110Z,23.00
2018-09-15T00:34:14.122Z,23.00
2018-09-15T00:35:14.150Z,23.40
2018-09-15T00:36:14.163Z,23.60
2018-09-15T00:37:14.175Z,23.00
2018-09-15T00:38:14.187Z,23.30
2018-09-15T00:39:14.206Z,23.70
2018-09-15T00:40:14.310Z,23.60
2018-09-15T00:41:14.245Z,23.90
2018-09-15T00:42:14.253Z,24.80
2018-09-15T00:43:14.275Z,23.50
2018-09-15T00:44:14.289Z,23.80
2018-09-15T00:45:14.306Z,24.40
2018-09-15T00:46:14.330Z,24.20
2018-09-15T00:47:14.342Z,23.00
2018-09-15T00:48:14.362Z,23.10
2018-09-15T00:49:14.382Z,22.60
2018-09-15T00:50:14.389Z,23.40
2018-09-15T00:51:14.409Z,23.40
2018-09-15T00:52:14.470Z,23.60
2018-09-15T00:53:14.443Z,24.90
2018-09-15T00:54:14.466Z,22.90
2018-09-15T00:55:14.479Z,23.50
2018-09-15T00:56:14.498Z,23.60
2018-09-15T00:57:14.511Z,22.30
2018-09-15T00:58:14.541Z,24.00
2018-09-15T00:59:14.554Z,23.40
2018-09-15T01:00:14.561Z,23.10
2018-09-15T01:01:14.579Z,24.00
2018-09-15T01:02:14.597Z,23.10
2018-09-15T01:03:14.611Z,23.00
2018-09-15T01:04:14.625Z,22.60
2018-09-15T01:05:14.641Z,23.00
2018-09-15T01:06:14.662Z,22.70
2018-09-15T01:07:14.683Z,23.20
2018-09-15T01:08:14.699Z,22.70
2018-09-15T01:09:14.720Z,23.50
2018-09-15T01:10:14.725Z,24.20
2018-09-15T01:11:14.741Z,24.40
2018-09-15T01:12:14.766Z,22.90
2018-09-15T01:13:14.830Z,23.30
2018-09-15T01:14:15.007Z,21.80
2018-09-15T01:15:14.811Z,22.60
2018-09-15T01:16:14.829Z,22.50
2018-09-15T01:17:14.897Z,24.60
2018-09-15T01:18:14.862Z,22.90
2018-09-15T01:19:14.885Z,23.10
2018-09-15T01:20:14.894Z,23.50
2018-09-15T01:21:14.911Z,22.80
2018-09-15T01:22:14.930Z,24.70
2018-09-15T01:23:15.007Z,22.80
2018-09-15T01:24:14.966Z,22.90
2018-09-15T01:25:14.990Z,23.50
2018-09-15T01:26:15.003Z,23.20
2018-09-15T01:27:15.018Z,23.00
2018-09-15T01:28:15.030Z,22.90
2018-09-15T01:29:15.078Z,22.60
2018-09-15T01:30:15.066Z,23.00
2018-09-15T01:31:15.134Z,23.30
2018-09-15T01:32:15.099Z,22.40
2018-09-15T01:33:15.116Z,23.20
2018-09-15T01:34:15.167Z,22.90
2018-09-15T01:35:15.154Z,22.80
2018-09-15T01:36:15.167Z,22.00
2018-09-15T01:37:15.841Z,22.40
2018-09-15T01:38:15.202Z,22.40
2018-09-15T01:39:15.219Z,22.60
2018-09-15T01:40:15.239Z,22.50
2018-09-15T01:41:15.250Z,22.10
2018-09-15T01:42:15.312Z,22.30
2018-09-15T01:43:15.285Z,22.10
2018-09-15T01:44:15.302Z,21.50
2018-09-15T01:45:15.322Z,21.10
2018-09-15T01:46:15.335Z,21.30
2018-09-15T01:47:15.355Z,21.30
2018-09-15T01:48:15.403Z,20.40
2018-09-15T01:49:15.387Z,20.50
2018-09-15T01:50:15.403Z,21.00
2018-09-15T01:51:15.427Z,20.60
2018-09-15T01:52:15.644Z,20.90
2018-09-15T01:53:15.652Z,20.50
2018-09-15T01:54:15.687Z,20.20
2018-09-15T01:55:15.759Z,20.20
2018-09-15T01:56:15.504Z,20.00
2018-09-15T01:57:15.524Z,20.20
2018-09-15T01:58:15.542Z,19.60
2018-09-15T01:59:15.555Z,20.20
2018-09-15T02:00:15.581Z,19.80
2018-09-15T02:01:15.591Z,20.40
2018-09-15T02:02:15.603Z,21.00
2018-09-15T02:03:15.619Z,20.10
2018-09-15T02:04:15.636Z,21.10
2018-09-15T02:05:15.660Z,20.60
2018-09-15T02:06:15.676Z,20.70
2018-09-15T02:07:15.687Z,20.40
2018-09-15T02:08:15.708Z,20.30
2018-09-15T02:09:15.729Z,21.40
2018-09-15T02:10:15.740Z,21.40
2018-09-15T02:11:15.756Z,21.00
2018-09-15T02:12:15.775Z,21.40
2018-09-15T02:13:15.796Z,21.00
2018-09-15T02:14:15.808Z,21.10
2018-09-15T02:15:15.829Z,21.50
2018-09-15T02:16:15.840Z,20.70
2018-09-15T02:17:15.861Z,22.20
2018-09-15T02:18:15.876Z,21.90
2018-09-15T02:19:15.900Z,21.80
2018-09-15T02:20:15.919Z,20.80
2018-09-15T02:21:15.920Z,22.40
2018-09-15T02:22:15.940Z,20.80
2018-09-15T02:23:15.961Z,21.20
2018-09-15T02:24:15.979Z,21.80
2018-09-15T02:25:16.008Z,20.90
2018-09-15T02:26:16.008Z,22.30
2018-09-15T02:27:16.029Z,20.90
2018-09-15T02:28:16.041Z,21.40
2018-09-15T02:29:16.064Z,21.20
2018-09-15T02:30:16.072Z,20.90
2018-09-15T02:31:16.093Z,21.70
2018-09-15T02:32:16.113Z,21.40
2018-09-15T02:33:16.129Z,22.30
2018-09-15T02:34:16.161Z,21.10
2018-09-15T02:35:16.162Z,35.80
2018-09-15T02:36:16.186Z,19.90
2018-09-15T02:37:16.245Z,21.40
2018-09-15T02:38:16.214Z,21.10
2018-09-15T02:39:16.231Z,19.50
2018-09-15T02:40:16.245Z,20.80
2018-09-15T02:41:16.264Z,20.30
2018-09-15T02:42:16.282Z,22.70
2018-09-15T02:43:16.341Z,21.50
2018-09-15T02:44:16.322Z,21.70
2018-09-15T02:45:16.326Z,21.90
2018-09-15T02:46:16.350Z,20.70
2018-09-15T02:47:16.362Z,21.50
2018-09-15T02:48:16.382Z,21.60
2018-09-15T02:49:16.429Z,21.20
2018-09-15T02:50:16.422Z,21.50
2018-09-15T02:51:16.430Z,21.30
2018-09-15T02:52:16.452Z,21.50
2018-09-15T02:53:16.457Z,21.70
2018-09-15T02:54:16.485Z,21.70
2018-09-15T02:55:16.598Z,22.60
2018-09-15T02:56:16.510Z,22.30
2018-09-15T02:57:16.531Z,22.10
2018-09-15T02:58:16.552Z,22.50
2018-09-15T02:59:16.571Z,22.50
2018-09-15T03:00:16.583Z,23.30
2018-09-15T03:01:16.644Z,23.60
2018-09-15T03:02:16.615Z,23.70
2018-09-15T03:03:16.634Z,24.60
2018-09-15T03:04:16.652Z,24.00
2018-09-15T03:05:16.670Z,22.60
2018-09-15T03:06:16.684Z,23.60
2018-09-15T03:07:16.781Z,24.10
2018-09-15T03:08:16.718Z,23.20
2018-09-15T03:09:16.731Z,24.40
2018-09-15T03:10:16.748Z,24.70
2018-09-15T03:11:16.759Z,23.90
2018-09-15T03:12:16.783Z,22.50
2018-09-15T03:13:16.795Z,24.30
2018-09-15T03:14:16.815Z,24.50
2018-09-15T03:15:16.829Z,23.90
2018-09-15T03:16:16.846Z,25.60
2018-09-15T03:17:16.863Z,24.50
2018-09-15T03:18:16.875Z,24.60
2018-09-15T03:19:16.902Z,24.80
2018-09-15T03:20:16.956Z,23.70
2018-09-15T03:21:16.938Z,25.00
2018-09-15T03:22:16.948Z,24.50
2018-09-15T03:23:16.961Z,24.60
2018-09-15T03:24:16.982Z,23.10
2018-09-15T03:25:16.996Z,24.10
2018-09-15T03:26:17.020Z,23.70
2018-09-15T03:27:17.032Z,23.90
2018-09-15T03:28:17.062Z,23.50
2018-09-15T03:29:17.064Z,23.40
2018-09-15T03:30:17.085Z,24.90
2018-09-15T03:31:17.106Z,24.20
2018-09-15T03:32:17.113Z,24.00
2018-09-15T03:33:17.130Z,23.60
2018-09-15T03:34:17.145Z,24.00
2018-09-15T03:35:17.161Z,24.10
2018-09-15T03:36:17.176Z,23.70
2018-09-15T03:37:17.197Z,23.50
2018-09-15T03:38:17.222Z,23.50
2018-09-15T03:39:17.293Z,22.40
2018-09-15T03:40:17.244Z,23.90
2018-09-15T03:41:17.285Z,24.70
2018-09-15T03:42:17.283Z,24.10
2018-09-15T03:43:17.301Z,23.50
2018-09-15T03:44:17.318Z,23.40
2018-09-15T03:45:17.333Z,23.80
2018-09-15T03:46:17.349Z,24.10
2018-09-15T03:47:17.366Z,23.10
2018-09-15T03:48:17.386Z,24.10
2018-09-15T03:49:17.402Z,23.00
2018-09-15T03:50:17.413Z,24.50
2018-09-15T03:51:17.445Z,24.90
2018-09-15T03:52:17.454Z,22.90
2018-09-15T03:53:17.466Z,23.40
2018-09-15T03:54:17.493Z,23.20
2018-09-15T03:55:17.497Z,24.40
2018-09-15T03:56:17.514Z,23.00
2018-09-15T03:57:17.526Z,23.90
2018-09-15T03:58:17.546Z,22.00
2018-09-15T03:59:17.566Z,20.80
2018-09-15T04:00:17.583Z,21.10
2018-09-15T04:01:17.608Z,18.20
2018-09-15T04:02:17.614Z,19.30
2018-09-15T04:03:17.634Z,19.00
2018-09-15T04:04:17.646Z,19.40
2018-09-15T04:05:17.662Z,19.80
2018-09-15T04:06:17.682Z,19.30
2018-09-15T04:07:17.702Z,19.20
2018-09-15T04:08:17.714Z,19.40
2018-09-15T04:09:17.731Z,20.00
2018-09-15T04:10:17.750Z,20.10
2018-09-15T04:11:17.765Z,20.20
2018-09-15T04:12:17.782Z,19.40
2018-09-15T04:13:17.796Z,19.50
2018-09-15T04:14:17.815Z,20.10
2018-09-15T04:15:17.834Z,20.00
2018-09-15T04:16:17.850Z,19.20
2018-09-15T04:17:17.867Z,18.30
2018-09-15T04:18:17.874Z,17.60
2018-09-15T04:19:17.900Z,17.60
2018-09-15T04:20:17.915Z,13.40
2018-09-15T04:21:17.939Z,10.60
2018-09-15T04:22:17.945Z,10.00
2018-09-15T04:23:17.959Z,10.60
2018-09-15T04:24:17.980Z,9.80
2018-09-15T04:25:17.995Z,9.00
2018-09-15T04:26:18.013Z,9.00
2018-09-15T04:27:18.023Z,9.00
2018-09-15T04:28:18.057Z,9.50
2018-09-15T04:29:18.059Z,10.10
2018-09-15T04:30:18.075Z,9.00
2018-09-15T04:31:18.096Z,9.40
2018-09-15T04:32:18.117Z,9.40
2018-09-15T04:33:18.132Z,9.20
2018-09-15T04:34:18.194Z,9.70
2018-09-15T04:35:18.160Z,9.20
2018-09-15T04:36:18.176Z,9.60
2018-09-15T04:37:18.197Z,8.90
2018-09-15T04:38:18.207Z,9.70
2018-09-15T04:39:18.227Z,10.60
2018-09-15T04:40:18.284Z,10.40
2018-09-15T04:41:18.257Z,10.20
2018-09-15T04:42:18.280Z,10.20
2018-09-15T04:43:20.396Z,10.20
2018-09-15T04:44:18.311Z,9.90
2018-09-15T04:45:18.325Z,9.50
2018-09-15T04:46:18.364Z,9.50
2018-09-15T04:47:18.360Z,8.90
2018-09-15T04:48:18.378Z,9.10
2018-09-15T04:49:18.393Z,9.40
2018-09-15T04:50:18.432Z,9.20
2018-09-15T04:51:18.428Z,9.30
2018-09-15T04:52:18.448Z,8.50
2018-09-15T04:53:18.465Z,9.80
2018-09-15T04:54:18.480Z,9.50
2018-09-15T04:55:18.502Z,8.70
2018-09-15T04:56:18.513Z,9.00
2018-09-15T04:57:18.529Z,8.90
2018-09-15T04:58:18.550Z,9.70
2018-09-15T04:59:18.653Z,9.70
2018-09-15T05:00:18.585Z,9.80
2018-09-15T05:01:18.600Z,10.80
2018-09-15T05:02:18.617Z,9.70
2018-09-15T05:03:18.628Z,10.00
2018-09-15T05:04:18.642Z,10.70
2018-09-15T05:05:18.673Z,10.40
2018-09-15T05:06:18.686Z,11.40
2018-09-15T05:07:18.750Z,10.40
2018-09-15T05:08:18.722Z,11.00
2018-09-15T05:09:18.727Z,10.30
2018-09-15T05:10:18.745Z,10.60
2018-09-15T05:11:18.762Z,10.70
2018-09-15T05:12:18.796Z,10.90
2018-09-15T05:13:18.809Z,10.90
2018-09-15T05:14:18.818Z,11.50
2018-09-15T05:15:18.843Z,10.40
2018-09-15T05:16:18.858Z,10.70
2018-09-15T05:17:18.875Z,10.70
2018-09-15T05:18:18.887Z,10.60
2018-09-15T05:19:18.907Z,10.60
2018-09-15T05:20:18.923Z,11.40
2018-09-15T05:21:18.934Z,10.50
2018-09-15T05:22:18.950Z,12.10
2018-09-15T05:23:18.971Z,11.80
2018-09-15T05:24:19.079Z,11.80
2018-09-15T05:25:19.008Z,11.30
2018-09-15T05:26:19.024Z,11.60
2018-09-15T05:27:19.035Z,10.70
2018-09-15T05:28:19.067Z,11.10
2018-09-15T05:29:19.075Z,10.40
2018-09-15T05:30:19.105Z,10.50
2018-09-15T05:31:19.111Z,10.90
2018-09-15T05:32:19.128Z,10.80
2018-09-15T05:33:19.144Z,10.90
2018-09-15T05:34:19.160Z,11.60
2018-09-15T05:35:19.179Z,10.50
2018-09-15T05:36:19.196Z,10.60
2018-09-15T05:37:19.219Z,10.30
2018-09-15T05:38:19.230Z,10.20
2018-09-15T05:39:19.240Z,10.50
2018-09-15T05:40:19.256Z,10.40
2018-09-15T05:41:19.272Z,11.30
2018-09-15T05:42:19.292Z,9.50
2018-09-15T05:43:19.312Z,10.80
2018-09-15T05:44:19.325Z,9.70
2018-09-15T05:45:19.341Z,12.20
2018-09-15T05:46:19.362Z,14.40
2018-09-15T05:47:19.376Z,10.60
2018-09-15T05:48:19.397Z,10.50
2018-09-15T05:49:19.508Z,11.90
2018-09-15T05:50:19.428Z,12.70
2018-09-15T05:51:19.441Z,10.50
2018-09-15T05:52:19.465Z,11.00
2018-09-15T05:53:19.481Z,10.80
2018-09-15T05:54:19.493Z,10.40
2018-09-15T05:55:19.518Z,11.80
2018-09-15T05:56:19.530Z,10.10
2018-09-15T05:57:19.550Z,12.30
2018-09-15T05:58:19.564Z,18.10
2018-09-15T05:59:19.584Z,22.00
2018-09-15T06:00:19.605Z,27.10
2018-09-15T06:01:19.607Z,28.20
2018-09-15T06:02:19.625Z,29.20
2018-09-15T06:03:19.642Z,27.70
2018-09-15T06:04:19.686Z,30.70
2018-09-15T06:05:19.677Z,29.10
2018-09-15T06:06:19.695Z,29.50
2018-09-15T06:07:19.714Z,31.90
2018-09-15T06:08:19.726Z,29.60
2018-09-15T06:09:19.743Z,29.20
2018-09-15T06:10:19.760Z,32.10
2018-09-15T06:11:19.775Z,30.20
2018-09-15T06:12:19.791Z,33.30
2018-09-15T06:13:19.807Z,29.40
2018-09-15T06:14:19.880Z,30.50
2018-09-15T06:15:19.839Z,29.50
2018-09-15T06:16:19.855Z,31.20
2018-09-15T06:17:19.873Z,29.60
2018-09-15T06:18:19.895Z,33.10
2018-09-15T06:19:19.905Z,32.80
2018-09-15T06:20:19.953Z,29.20
2018-09-15T06:21:19.935Z,30.40
2018-09-15T06:22:19.957Z,32.90
2018-09-15T06:23:19.968Z,30.30
2018-09-15T06:24:19.980Z,30.70
2018-09-15T06:25:20.007Z,31.90
2018-09-15T06:26:20.016Z,33.70
2018-09-15T06:27:20.033Z,31.70
2018-09-15T06:28:20.044Z,32.20
2018-09-15T06:29:20.060Z,33.70
2018-09-15T06:30:20.076Z,32.80
2018-09-15T06:31:20.092Z,34.90
2018-09-15T06:32:20.181Z,36.40
2018-09-15T06:33:20.124Z,33.90
2018-09-15T06:34:20.150Z,31.20
2018-09-15T06:35:20.160Z,31.50
2018-09-15T06:36:20.190Z,34.10
2018-09-15T06:37:21.699Z,32.30
2018-09-15T06:38:20.241Z,33.10
2018-09-15T06:39:20.285Z,31.60
2018-09-15T06:40:20.234Z,31.20
2018-09-15T06:41:20.249Z,31.70
2018-09-15T06:42:20.309Z,30.30
2018-09-15T06:43:20.286Z,33.10
2018-09-15T06:44:20.373Z,31.90
2018-09-15T06:45:20.394Z,29.80
2018-09-15T06:46:20.330Z,32.40
2018-09-15T06:47:20.349Z,30.60
2018-09-15T06:48:20.361Z,29.50
2018-09-15T06:49:20.388Z,32.80
2018-09-15T06:50:20.413Z,29.20
2018-09-15T06:51:20.450Z,31.20
2018-09-15T06:52:20.435Z,29.80
2018-09-15T06:53:20.442Z,31.40
2018-09-15T06:54:20.458Z,31.00
2018-09-15T06:55:20.489Z,31.80
2018-09-15T06:56:20.543Z,29.50
2018-09-15T06:57:20.506Z,30.80
2018-09-15T06:58:20.527Z,29.60
2018-09-15T06:59:20.534Z,29.00
2018-09-15T07:00:20.554Z,32.20
2018-09-15T07:01:20.571Z,27.80
2018-09-15T07:02:20.587Z,31.60
2018-09-15T07:03:20.609Z,27.20
2018-09-15T07:04:20.622Z,27.60
2018-09-15T07:05:20.634Z,30.50
2018-09-15T07:06:20.651Z,27.70
2018-09-15T07:07:20.684Z,27.70
2018-09-15T07:08:20.694Z,29.10
2018-09-15T07:09:20.704Z,29.50
2018-09-15T07:10:20.721Z,31.10
2018-09-15T07:11:20.732Z,29.20
2018-09-15T07:12:20.759Z,29.20
2018-09-15T07:13:20.767Z,30.00
2018-09-15T07:14:20.783Z,27.40
2018-09-15T07:15:20.815Z,27.10
2018-09-15T07:16:20.815Z,29.30
2018-09-15T07:17:20.836Z,28.50
2018-09-15T07:18:20.852Z,29.60
2018-09-15T07:19:20.865Z,28.50
2018-09-15T07:20:20.884Z,28.10
2018-09-15T07:21:20.935Z,27.00
2018-09-15T07:22:20.909Z,27.00
2018-09-15T07:23:20.933Z,26.80
2018-09-15T07:24:20.944Z,25.60
2018-09-15T07:25:20.960Z,25.20
2018-09-15T07:26:20.981Z,24.80
2018-09-15T07:27:21.001Z,24.00
2018-09-15T07:28:21.012Z,25.90
2018-09-15T07:29:21.026Z,25.80
2018-09-15T07:30:21.050Z,26.30
2018-09-15T07:31:21.123Z,26.00
2018-09-15T07:32:21.076Z,25.20
2018-09-15T07:33:21.097Z,27.20
2018-09-15T07:34:21.114Z,26.50
2018-09-15T07:35:21.129Z,25.80
2018-09-15T07:36:21.150Z,28.20
2018-09-15T07:37:21.163Z,26.70
2018-09-15T07:38:21.177Z,27.20
2018-09-15T07:39:21.198Z,29.10
2018-09-15T07:40:21.206Z,24.80
2018-09-15T07:41:21.230Z,26.10
2018-09-15T07:42:21.242Z,27.00
2018-09-15T07:43:21.260Z,26.40
2018-09-15T07:44:21.278Z,25.90
2018-09-15T07:45:21.295Z,26.70
2018-09-15T07:46:21.314Z,27.20
2018-09-15T07:47:21.335Z,25.80
2018-09-15T07:48:21.342Z,24.70
2018-09-15T07:49:21.362Z,26.30
2018-09-15T07:50:21.383Z,29.40
2018-09-15T07:51:21.408Z,26.00
2018-09-15T07:52:21.421Z,25.30
2018-09-15T07:53:21.435Z,25.70
2018-09-15T07:54:21.450Z,26.20
2018-09-15T07:55:21.471Z,24.40
2018-09-15T07:56:21.483Z,24.30
2018-09-15T07:57:21.518Z,27.40
2018-09-15T07:58:21.584Z,27.30
2018-09-15T07:59:21.532Z,24.90
2018-09-15T08:00:21.550Z,25.40
2018-09-15T08:01:22.465Z,27.00
2018-09-15T08:02:21.581Z,26.50
2018-09-15T08:03:21.594Z,24.80
2018-09-15T08:04:21.700Z,25.40
2018-09-15T08:05:21.637Z,32.90
2018-09-15T08:06:21.656Z,25.90
2018-09-15T08:07:21.667Z,26.20
2018-09-15T08:08:21.689Z,26.70
2018-09-15T08:09:21.704Z,25.60
2018-09-15T08:10:21.802Z,26.10
2018-09-15T08:11:21.741Z,25.00
2018-09-15T08:12:21.757Z,24.60
2018-09-15T08:13:21.774Z,25.20
2018-09-15T08:14:21.784Z,24.60
2018-09-15T08:15:21.817Z,26.10
2018-09-15T08:16:21.869Z,24.50
2018-09-15T08:17:21.838Z,26.40
2018-09-15T08:18:21.862Z,26.70
2018-09-15T08:19:22.981Z,28.50
2018-09-15T08:20:21.889Z,27.40
2018-09-15T08:21:21.915Z,28.30
2018-09-15T08:22:21.997Z,25.50
2018-09-15T08:23:21.954Z,26.10
2018-09-15T08:24:21.963Z,25.30
2018-09-15T08:25:21.982Z,25.70
2018-09-15T08:26:22.040Z,24.80
2018-09-15T08:27:22.053Z,25.90
2018-09-15T08:28:22.099Z,25.40
2018-09-15T08:29:22.046Z,25.00
2018-09-15T08:30:22.070Z,24.50
2018-09-15T08:31:22.086Z,25.30
2018-09-15T08:32:22.102Z,24.00
2018-09-15T08:33:22.122Z,23.60
2018-09-15T08:34:22.204Z,22.40
2018-09-15T08:35:22.150Z,23.70
2018-09-15T08:36:22.170Z,24.40
2018-09-15T08:37:22.238Z,22.30
2018-09-15T08:38:22.209Z,21.90
2018-09-15T08:39:22.221Z,24.50
2018-09-15T08:40:22.327Z,24.60
2018-09-15T08:41:22.368Z,21.90
2018-09-15T08:42:22.276Z,24.20
2018-09-15T08:43:22.291Z,20.90
2018-09-15T08:44:22.315Z,21.80
2018-09-15T08:45:22.331Z,23.10
2018-09-15T08:46:22.391Z,22.10
2018-09-15T08:47:22.363Z,21.80
2018-09-15T08:48:22.469Z,23.70
2018-09-15T08:49:22.400Z,23.00
2018-09-15T08:50:22.420Z,23.20
2018-09-15T08:51:22.440Z,27.40
2018-09-15T08:52:22.446Z,24.80
2018-09-15T08:53:22.468Z,20.10
2018-09-15T08:54:22.485Z,19.70
2018-09-15T08:55:22.512Z,24.00
2018-09-15T08:56:22.516Z,23.60
2018-09-15T08:57:22.540Z,23.40
2018-09-15T08:58:22.553Z,21.50
2018-09-15T08:59:22.572Z,21.00
2018-09-15T09:00:22.589Z,21.50
2018-09-15T09:01:22.618Z,19.60
2018-09-15T09:02:22.628Z,19.00
2018-09-15T09:03:22.638Z,20.20
2018-09-15T09:04:22.665Z,21.50
2018-09-15T09:05:22.681Z,24.70
2018-09-15T09:06:22.692Z,19.10
2018-09-15T09:07:22.713Z,20.80
2018-09-15T09:08:22.737Z,20.20
2018-09-15T09:09:22.749Z,20.60
2018-09-15T09:10:22.817Z,20.50
2018-09-15T09:11:22.899Z,22.70
2018-09-15T09:12:22.801Z,20.40
2018-09-15T09:13:22.869Z,20.70
2018-09-15T09:14:22.841Z,20.50
2018-09-15T09:15:22.863Z,21.30
2018-09-15T09:16:22.874Z,20.40
2018-09-15T09:17:22.889Z,20.60
2018-09-15T09:18:22.909Z,22.50
2018-09-15T09:19:22.934Z,20.70
2018-09-15T09:20:22.945Z,20.70
2018-09-15T09:21:22.965Z,20.10
2018-09-15T09:22:22.993Z,21.70
2018-09-15T09:23:23.005Z,20.60
2018-09-15T09:24:23.019Z,20.50
2018-09-15T09:25:23.038Z,20.90
2018-09-15T09:26:23.183Z,20.70
2018-09-15T09:27:23.069Z,21.70
2018-09-15T09:28:23.086Z,21.10
2018-09-15T09:29:23.104Z,21.00
2018-09-15T09:30:23.126Z,21.30
2018-09-15T09:31:23.150Z,21.50
2018-09-15T09:32:23.197Z,23.60
2018-09-15T09:33:23.195Z,22.60
2018-09-15T09:34:23.202Z,22.30
2018-09-15T09:35:23.221Z,20.20
2018-09-15T09:36:23.241Z,21.00
2018-09-15T09:37:23.258Z,22.20
2018-09-15T09:38:23.335Z,23.50
2018-09-15T09:39:23.294Z,20.20
2018-09-15T09:40:23.365Z,21.30
2018-09-15T09:41:23.365Z,20.60
2018-09-15T09:42:23.354Z,21.10
2018-09-15T09:43:23.370Z,23.10
2018-09-15T09:44:23.389Z,23.10
2018-09-15T09:45:23.410Z,21.00
2018-09-15T09:46:23.431Z,21.40
2018-09-15T09:47:23.442Z,21.50
2018-09-15T09:48:23.548Z,20.80
2018-09-15T09:49:23.479Z,24.20
2018-09-15T09:50:23.501Z,24.00
2018-09-15T09:51:23.510Z,23.70
2018-09-15T09:52:23.531Z,21.60
2018-09-15T09:53:23.555Z,20.00
2018-09-15T09:54:23.571Z,18.50
2018-09-15T09:55:23.647Z,18.20
2018-09-15T09:56:23.611Z,18.60
2018-09-15T09:57:23.631Z,18.80
2018-09-15T09:58:23.651Z,17.60
2018-09-15T09:59:23.682Z,17.90
2018-09-15T10:00:23.687Z,17.00
2018-09-15T10:01:23.842Z,16.50
2018-09-15T10:02:23.728Z,18.00
2018-09-15T10:03:23.751Z,18.90
2018-09-15T10:04:23.768Z,18.50
2018-09-15T10:05:23.792Z,27.70
2018-09-15T10:06:23.811Z,17.10
2018-09-15T10:07:23.831Z,17.10
2018-09-15T10:08:23.847Z,17.20
2018-09-15T10:09:23.865Z,17.30
2018-09-15T10:10:23.888Z,17.00
2018-09-15T10:11:23.911Z,17.20
2018-09-15T10:12:23.932Z,17.40
2018-09-15T10:13:23.956Z,18.10
2018-09-15T10:14:23.965Z,18.00
2018-09-15T10:15:23.984Z,17.10
2018-09-15T10:16:24.062Z,17.20
2018-09-15T10:17:24.041Z,17.60
2018-09-15T10:18:24.042Z,17.00
2018-09-15T10:19:24.069Z,18.40
2018-09-15T10:20:24.089Z,18.90
2018-09-15T10:21:24.147Z,17.00
2018-09-15T10:22:24.125Z,16.80
2018-09-15T10:23:24.192Z,15.70
2018-09-15T10:24:24.172Z,16.50
2018-09-15T10:25:24.194Z,16.20
2018-09-15T10:26:24.210Z,16.60
2018-09-15T10:27:24.230Z,17.50
2018-09-15T10:28:24.258Z,17.50
2018-09-15T10:29:24.278Z,15.10
2018-09-15T10:30:24.288Z,16.00
2018-09-15T10:31:24.317Z,20.40
2018-09-15T10:32:24.338Z,15.30
2018-09-15T10:33:24.373Z,14.60
2018-09-15T10:34:24.384Z,14.10
2018-09-15T10:35:24.402Z,14.00
2018-09-15T10:36:24.421Z,14.20
2018-09-15T10:37:24.446Z,14.10
2018-09-15T10:38:24.493Z,13.70
2018-09-15T10:39:25.677Z,15.00
2018-09-15T10:40:24.603Z,14.30
2018-09-15T10:41:24.530Z,13.40
2018-09-15T10:42:24.552Z,13.60
2018-09-15T10:43:24.577Z,13.50
2018-09-15T10:44:24.601Z,13.20
2018-09-15T10:45:24.626Z,13.00
2018-09-15T10:46:24.646Z,12.50
2018-09-15T10:47:24.670Z,13.20
2018-09-15T10:48:24.690Z,11.50
2018-09-15T10:49:24.711Z,12.60
2018-09-15T10:50:24.738Z,12.20
2018-09-15T10:51:24.759Z,11.50
2018-09-15T10:52:24.836Z,11.00
2018-09-15T10:53:24.801Z,11.10
2018-09-15T10:54:24.822Z,12.00
2018-09-15T10:55:24.873Z,12.00
2018-09-15T10:56:24.866Z,10.80
2018-09-15T10:57:24.894Z,10.40
2018-09-15T10:58:24.918Z,10.20
2018-09-15T10:59:24.940Z,11.10
2018-09-15T11:00:25.049Z,11.70
2018-09-15T11:01:24.991Z,11.80
2018-09-15T11:02:25.017Z,12.30
2018-09-15T11:03:25.027Z,12.30
2018-09-15T11:04:25.142Z,11.00
2018-09-15T11:05:25.078Z,12.00
2018-09-15T11:06:25.106Z,11.10
2018-09-15T11:07:25.122Z,11.10
2018-09-15T11:08:25.146Z,11.90
2018-09-15T11:09:25.166Z,12.10
2018-09-15T11:10:25.191Z,11.40
2018-09-15T11:11:25.223Z,11.20
2018-09-15T11:12:25.242Z,12.50
2018-09-15T11:13:25.373Z,10.50
2018-09-15T11:14:25.286Z,11.10
2018-09-15T11:15:25.315Z,11.80
2018-09-15T11:16:25.339Z,11.70
2018-09-15T11:17:25.363Z,12.70
2018-09-15T11:18:25.456Z,12.00
2018-09-15T11:19:25.413Z,12.10
2018-09-15T11:20:25.432Z,12.20
2018-09-15T11:21:25.446Z,11.00
2018-09-15T11:22:25.493Z,10.60
2018-09-15T11:23:25.503Z,10.80
2018-09-15T11:24:25.519Z,11.60
2018-09-15T11:25:25.546Z,10.90
2018-09-15T11:26:25.575Z,11.40
2018-09-15T11:27:25.591Z,13.60
2018-09-15T11:28:25.642Z,12.80
2018-09-15T11:29:25.640Z,11.70
2018-09-15T11:30:25.656Z,13.50
2018-09-15T11:31:25.690Z,13.40
2018-09-15T11:32:25.707Z,12.10
2018-09-15T11:33:25.739Z,13.20
2018-09-15T11:34:25.754Z,11.70
2018-09-15T11:35:25.776Z,12.50
2018-09-15T11:36:25.799Z,15.40
2018-09-15T11:37:25.823Z,13.10
2018-09-15T11:38:25.851Z,12.80
2018-09-15T11:39:25.888Z,12.50
2018-09-15T11:40:25.895Z,12.90
2018-09-15T11:41:25.914Z,12.80
2018-09-15T11:42:25.940Z,12.20
2018-09-15T11:43:26.025Z,12.20
2018-09-15T11:44:25.991Z,11.70
2018-09-15T11:45:26.016Z,12.50
2018-09-15T11:46:26.043Z,12.90
2018-09-15T11:47:26.059Z,12.90
2018-09-15T11:48:26.088Z,10.70
2018-09-15T11:49:26.115Z,11.00
2018-09-15T11:50:26.136Z,11.30
2018-09-15T11:51:26.153Z,12.00
2018-09-15T11:52:26.185Z,11.50
2018-09-15T11:53:26.208Z,11.20
2018-09-15T11:54:26.228Z,11.70
2018-09-15T11:55:26.251Z,12.90
2018-09-15T11:56:26.280Z,11.70
2018-09-15T11:57:26.304Z,10.20
2018-09-15T11:58:26.328Z,12.80
2018-09-15T11:59:26.351Z,10.90
2018-09-15T12:00:26.370Z,14.90
2018-09-15T12:01:26.400Z,11.40
2018-09-15T12:02:26.420Z,11.00
2018-09-15T12:03:26.440Z,12.00
2018-09-15T12:04:26.471Z,10.60
2018-09-15T12:05:26.492Z,14.40
2018-09-15T12:06:26.519Z,10.60
2018-09-15T12:07:26.540Z,11.10
2018-09-15T12:08:26.563Z,10.90
2018-09-15T12:09:26.583Z,11.10
2018-09-15T12:10:26.604Z,10.80
2018-09-15T12:11:26.629Z,11.40
2018-09-15T12:12:26.656Z,10.60
2018-09-15T12:13:26.681Z,10.60
2018-09-15T12:14:26.704Z,11.10
2018-09-15T12:15:26.725Z,10.90
2018-09-15T12:16:26.754Z,10.10
2018-09-15T12:17:26.775Z,10.90
2018-09-15T12:18:26.803Z,10.90
2018-09-15T12:19:26.852Z,10.10
2018-09-15T12:20:26.848Z,9.70
2018-09-15T12:21:26.941Z,10.10
2018-09-15T12:22:26.889Z,10.50
2018-09-15T12:23:26.920Z,10.10
2018-09-15T12:24:26.944Z,10.10
2018-09-15T12:25:26.988Z,10.30
2018-09-15T12:26:26.992Z,10.40
2018-09-15T12:27:27.005Z,10.30
2018-09-15T12:28:27.035Z,10.10
2018-09-15T12:29:27.057Z,10.10
2018-09-15T12:30:27.084Z,9.80
2018-09-15T12:31:27.355Z,10.30
2018-09-15T12:32:27.137Z,9.50
2018-09-15T12:33:27.195Z,9.10
2018-09-15T12:34:27.181Z,9.10
2018-09-15T12:35:27.205Z,9.50
2018-09-15T12:36:27.228Z,9.60
2018-09-15T12:37:27.257Z,9.90
2018-09-15T12:38:27.278Z,9.30
2018-09-15T12:39:27.345Z,8.70
2018-09-15T12:40:27.327Z,9.30
2018-09-15T12:41:27.344Z,8.70
2018-09-15T12:42:27.368Z,10.10
2018-09-15T12:43:27.404Z,10.40
2018-09-15T12:44:27.422Z,10.20
2018-09-15T12:45:27.445Z,10.90
2018-09-15T12:46:27.464Z,10.70
2018-09-15T12:47:27.497Z,10.90
2018-09-15T12:48:27.521Z,10.80
2018-09-15T12:49:27.541Z,10.80
2018-09-15T12:50:27.597Z,10.20
2018-09-15T12:51:27.596Z,10.60
2018-09-15T12:52:27.674Z,10.60
2018-09-15T12:53:27.641Z,13.70
2018-09-15T12:54:27.672Z,10.40